Portada
METAR-TAF:

METAR-TAF

Aeropuertos :

Bella Coola, Columbia Británica, Canadá

latitud: 52-23N, longitud: 126-35W, altitud: 35 m

Observación

El informe se hizo hace 19 minutos, a las 18:36 UTC
Viento calma
Temperatura 3°C
Humedad 93%
Presión 1005 hPa
Visibilidad: 19.3 km
Cielo nuboso a una altura de 1800 ft
Cielo cubierto a una altura de 4000 ft

METAR: CYBD 201836Z 00000KT 12SM BKN018 OVC040 03/02 A2969 RMK SC5SC3 SLP058

Hora: 10:55 (18:55 UTC)


TAF: falta

Observaciones y pronósticos meteorológicos de más de 4000 aeropuertos (mensajes METAR y TAF).

Los puntos amarillos y rojos representan las estaciones disponibles.

Ponga el ratón en el punto deseado para ver el nombre de la estación.

Haga clic para ver las observaciones y los pronósticos meteorológicos.

Para cambiar el mapa : haga clic en los botones verdes con una cruz de color negro para hacer un zoom, en el botón verde con un guión para alejar o en las flechas verdes para mapas adyacentes.


METAR-TAF: